Time;durP1;ratioP1;P1;durP2;ratioP2;P2;SDS_P1;SDS_P2;PMS_P1;PMS_P2;Temp;Humidity;BMP_temperature;BMP_pressure;BME280_temperature;BME280_humidity;BME280_pressure;Samples;Min_cycle;Max_cycle;Signal;HPM_P1;HPM_P2
2023/09/02 00:00:40;;;;;;;11.80;6.15;;;;;;;;;;5032049;28;20383;-73
2023/09/02 00:03:05;;;;;;;15.57;6.68;;;;;;;;;;5031416;28;20032;-74
2023/09/02 00:05:30;;;;;;;9.48;5.93;;;;;;;;;;5032182;28;20388;-73
2023/09/02 00:07:56;;;;;;;11.90;5.38;;;;;;;;;;5032132;28;20025;-73
2023/09/02 00:10:21;;;;;;;9.45;4.72;;;;;;;;;;5044272;28;20029;-74
2023/09/02 00:12:47;;;;;;;7.85;4.93;;;;;;;;;;5068975;28;20032;-74
2023/09/02 00:15:12;;;;;;;9.45;4.70;;;;;;;;;;5053781;28;20031;-74
2023/09/02 00:17:38;;;;;;;11.02;6.03;;;;;;;;;;5055158;28;20021;-74
2023/09/02 00:20:08;;;;;;;8.85;4.95;;;;;;;;;;5055474;28;20079;-73
2023/09/02 00:22:33;;;;;;;8.35;4.70;;;;;;;;;;5039230;28;20021;-73
2023/09/02 00:24:59;;;;;;;6.75;4.20;;;;;;;;;;5055236;28;20082;-74
2023/09/02 00:27:24;;;;;;;7.03;3.97;;;;;;;;;;5055299;28;20025;-73
2023/09/02 00:29:50;;;;;;;8.18;4.28;;;;;;;;;;5038008;28;20082;-73
2023/09/02 00:32:15;;;;;;;7.72;5.10;;;;;;;;;;5056452;28;20054;-74
2023/09/02 00:34:40;;;;;;;7.65;4.18;;;;;;;;;;5055216;28;20024;-74
2023/09/02 00:37:06;;;;;;;7.15;4.20;;;;;;;;;;5056267;28;20032;-73
2023/09/02 00:39:31;;;;;;;6.07;3.55;;;;;;;;;;5056263;28;20047;-73
2023/09/02 00:41:57;;;;;;;8.35;4.70;;;;;;;;;;5054763;28;20031;-74
2023/09/02 00:44:23;;;;;;;10.23;5.00;;;;;;;;;;5054555;28;20028;-74
2023/09/02 00:46:48;;;;;;;5.95;3.92;;;;;;;;;;5037914;28;20029;-74
2023/09/02 00:49:14;;;;;;;9.00;5.15;;;;;;;;;;5038159;28;20036;-74
2023/09/02 00:51:39;;;;;;;11.93;5.97;;;;;;;;;;5054768;28;20129;-74
2023/09/02 00:54:04;;;;;;;10.32;5.57;;;;;;;;;;5055737;28;20036;-74
2023/09/02 00:56:31;;;;;;;7.97;4.63;;;;;;;;;;5054729;28;20021;-74
2023/09/02 00:58:59;;;;;;;11.60;4.50;;;;;;;;;;5054665;28;20033;-73
2023/09/02 01:01:26;;;;;;;10.13;5.25;;;;;;;;;;5054507;28;20128;-73
2023/09/02 01:03:51;;;;;;;8.52;4.35;;;;;;;;;;5054720;28;20029;-73
2023/09/02 01:06:16;;;;;;;6.82;4.43;;;;;;;;;;5054184;28;20032;-74
2023/09/02 01:08:42;;;;;;;6.53;3.70;;;;;;;;;;5054518;28;20040;-73
2023/09/02 01:11:07;;;;;;;7.82;3.90;;;;;;;;;;5054303;28;20100;-74
2023/09/02 01:13:32;;;;;;;7.63;5.30;;;;;;;;;;5053613;28;20040;-74
2023/09/02 01:15:58;;;;;;;8.05;4.25;;;;;;;;;;5055676;28;20013;-74
2023/09/02 01:18:27;;;;;;;5.90;3.70;;;;;;;;;;5053694;28;20027;-74
2023/09/02 01:21:17;;;;;;;9.57;4.68;;;;;;;;;;5055047;28;20056;-74
2023/09/02 01:24:12;;;;;;;10.38;6.32;;;;;;;;;;5055330;28;20387;-74
2023/09/02 01:27:05;;;;;;;7.78;4.32;;;;;;;;;;5053771;28;20044;-73
2023/09/02 01:29:38;;;;;;;6.47;3.58;;;;;;;;;;5070355;28;20021;-74
2023/09/02 01:32:06;;;;;;;10.50;4.65;;;;;;;;;;5054387;28;20032;-73
2023/09/02 01:34:33;;;;;;;8.18;4.50;;;;;;;;;;5053954;28;20070;-74
2023/09/02 01:36:59;;;;;;;9.05;5.10;;;;;;;;;;5053562;28;20507;-73
2023/09/02 01:39:26;;;;;;;8.43;4.45;;;;;;;;;;5037203;28;20123;-73
2023/09/02 01:41:51;;;;;;;11.70;4.78;;;;;;;;;;5054064;28;20151;-73
2023/09/02 01:44:18;;;;;;;7.63;4.28;;;;;;;;;;5070855;28;20059;-73
2023/09/02 01:46:45;;;;;;;9.35;4.18;;;;;;;;;;5053771;28;20025;-73
2023/09/02 01:49:11;;;;;;;9.55;4.72;;;;;;;;;;5053689;28;20025;-74
2023/09/02 01:51:37;;;;;;;8.15;4.15;;;;;;;;;;5053204;28;20040;-73
2023/09/02 01:54:02;;;;;;;10.93;4.82;;;;;;;;;;5053618;28;20033;-73
2023/09/02 01:56:28;;;;;;;12.38;6.90;;;;;;;;;;5054767;28;20067;-73
2023/09/02 01:58:53;;;;;;;11.68;5.65;;;;;;;;;;5053602;28;20138;-74
2023/09/02 02:01:19;;;;;;;12.32;5.35;;;;;;;;;;5053613;28;20067;-73
2023/09/02 02:03:56;;;;;;;10.90;5.75;;;;;;;;;;5053501;28;20029;-73
2023/09/02 02:06:23;;;;;;;11.27;5.60;;;;;;;;;;5069581;28;20052;-74
2023/09/02 02:09:04;;;;;;;13.65;6.72;;;;;;;;;;5053335;28;20099;-74
2023/09/02 02:11:33;;;;;;;13.10;5.88;;;;;;;;;;5036797;28;20078;-73
2023/09/02 02:14:02;;;;;;;13.98;6.45;;;;;;;;;;5053212;28;20467;-73
2023/09/02 02:16:28;;;;;;;10.77;5.70;;;;;;;;;;5053010;28;20028;-73
2023/09/02 02:18:53;;;;;;;9.50;5.18;;;;;;;;;;5053172;28;20478;-74
2023/09/02 02:21:19;;;;;;;8.80;5.05;;;;;;;;;;5054304;28;20021;-73
2023/09/02 02:23:44;;;;;;;10.60;6.25;;;;;;;;;;5053354;28;20056;-73
2023/09/02 02:26:10;;;;;;;9.48;5.15;;;;;;;;;;5036225;28;20048;-73
2023/09/02 02:28:37;;;;;;;11.80;6.00;;;;;;;;;;5035657;28;20027;-74
2023/09/02 02:31:02;;;;;;;10.32;6.72;;;;;;;;;;5036742;28;20395;-73
2023/09/02 02:33:28;;;;;;;10.40;4.97;;;;;;;;;;5052998;28;20021;-73
2023/09/02 02:35:54;;;;;;;10.40;5.55;;;;;;;;;;5052723;28;20028;-74
2023/09/02 02:38:19;;;;;;;11.27;5.75;;;;;;;;;;5068723;28;20029;-73
2023/09/02 02:40:45;;;;;;;13.13;7.30;;;;;;;;;;5035433;28;20028;-73
2023/09/02 02:43:10;;;;;;;13.27;6.20;;;;;;;;;;5035996;28;20036;-74
2023/09/02 02:45:36;;;;;;;12.55;6.25;;;;;;;;;;5045255;28;20483;-74
2023/09/02 02:48:02;;;;;;;10.32;5.70;;;;;;;;;;5064766;28;20032;-74
2023/09/02 02:50:27;;;;;;;14.50;7.30;;;;;;;;;;5072296;28;20394;-74
2023/09/02 02:52:52;;;;;;;10.55;5.07;;;;;;;;;;5073106;28;20028;-74
2023/09/02 02:55:17;;;;;;;13.48;6.93;;;;;;;;;;5071533;28;20028;-74
2023/09/02 02:57:44;;;;;;;10.57;5.40;;;;;;;;;;5073701;28;20021;-74
2023/09/02 03:00:10;;;;;;;10.52;5.72;;;;;;;;;;5073554;28;20032;-74
2023/09/02 03:02:35;;;;;;;10.30;6.10;;;;;;;;;;5071983;28;20406;-74
2023/09/02 03:05:00;;;;;;;8.15;5.15;;;;;;;;;;5072134;28;20474;-74
2023/09/02 03:07:25;;;;;;;12.13;5.68;;;;;;;;;;5072546;28;20029;-73
2023/09/02 03:09:51;;;;;;;8.85;4.95;;;;;;;;;;5055417;28;20028;-73
2023/09/02 03:12:16;;;;;;;10.80;5.38;;;;;;;;;;5072246;28;20036;-74
2023/09/02 03:14:42;;;;;;;10.18;5.55;;;;;;;;;;5071737;28;20109;-74
2023/09/02 03:17:07;;;;;;;10.02;4.88;;;;;;;;;;5072080;28;20507;-74
2023/09/02 03:19:32;;;;;;;7.28;4.07;;;;;;;;;;5055620;28;20440;-74
2023/09/02 03:21:58;;;;;;;6.97;4.00;;;;;;;;;;5072520;28;20024;-74
2023/09/02 03:24:23;;;;;;;7.45;4.57;;;;;;;;;;5073499;28;20401;-73
2023/09/02 03:26:48;;;;;;;6.63;4.10;;;;;;;;;;5072365;28;20032;-74
2023/09/02 03:29:14;;;;;;;7.68;4.30;;;;;;;;;;5073600;28;20108;-73
2023/09/02 03:31:39;;;;;;;7.70;5.15;;;;;;;;;;5073412;28;20029;-74
2023/09/02 03:34:04;;;;;;;10.82;5.32;;;;;;;;;;5073226;28;20107;-74
2023/09/02 03:36:30;;;;;;;9.32;6.57;;;;;;;;;;5071711;28;20390;-74
2023/09/02 03:38:55;;;;;;;9.63;4.38;;;;;;;;;;5072016;28;20506;-74
2023/09/02 03:41:23;;;;;;;7.07;3.63;;;;;;;;;;5072113;28;20497;-74
2023/09/02 03:43:48;;;;;;;4.88;2.80;;;;;;;;;;5071584;28;20074;-74
2023/09/02 03:46:14;;;;;;;5.05;3.78;;;;;;;;;;5054586;28;20486;-74
2023/09/02 03:48:39;;;;;;;5.13;3.05;;;;;;;;;;5073653;28;20029;-74
2023/09/02 03:51:11;;;;;;;5.55;4.07;;;;;;;;;;5076982;28;20020;-74
2023/09/02 03:53:37;;;;;;;7.22;4.65;;;;;;;;;;5075915;28;20039;-74
2023/09/02 03:56:03;;;;;;;6.88;4.38;;;;;;;;;;5058148;28;20016;-74
2023/09/02 03:58:29;;;;;;;8.63;4.03;;;;;;;;;;5075719;28;20032;-74
2023/09/02 04:00:55;;;;;;;5.22;3.60;;;;;;;;;;5075399;28;20141;-74
2023/09/02 04:03:21;;;;;;;5.63;4.32;;;;;;;;;;5075760;28;20496;-74
2023/09/02 04:05:47;;;;;;;7.80;4.60;;;;;;;;;;5075357;28;20028;-74
2023/09/02 04:08:15;;;;;;;7.82;4.07;;;;;;;;;;5075401;28;20478;-74
2023/09/02 04:10:40;;;;;;;9.20;4.38;;;;;;;;;;5075154;28;20061;-74
2023/09/02 04:13:05;;;;;;;9.65;4.28;;;;;;;;;;5075228;28;20028;-74
2023/09/02 04:15:31;;;;;;;8.05;3.75;;;;;;;;;;5075568;28;20020;-74
2023/09/02 04:17:56;;;;;;;8.43;4.07;;;;;;;;;;5075025;28;20025;-74
2023/09/02 04:20:22;;;;;;;6.70;4.15;;;;;;;;;;5077155;28;20059;-73
2023/09/02 04:22:47;;;;;;;12.07;5.22;;;;;;;;;;5075066;28;20025;-74
2023/09/02 04:25:16;;;;;;;8.18;4.55;;;;;;;;;;5075990;28;20024;-74
2023/09/02 04:27:41;;;;;;;8.23;3.78;;;;;;;;;;5075280;28;20504;-73
2023/09/02 04:30:07;;;;;;;8.45;4.68;;;;;;;;;;5074710;28;20111;-74
2023/09/02 04:32:32;;;;;;;8.73;4.63;;;;;;;;;;5074493;28;20078;-74
2023/09/02 04:34:57;;;;;;;9.55;4.88;;;;;;;;;;5074594;28;20069;-74
2023/09/02 04:37:22;;;;;;;10.23;5.85;;;;;;;;;;5075345;28;20394;-74
2023/09/02 04:39:48;;;;;;;10.98;5.82;;;;;;;;;;5072680;28;20040;-74
2023/09/02 04:42:13;;;;;;;8.75;4.78;;;;;;;;;;5045855;28;20030;-74
2023/09/02 04:44:38;;;;;;;10.13;5.18;;;;;;;;;;5034529;28;20026;-74
2023/09/02 04:47:06;;;;;;;8.63;5.32;;;;;;;;;;5050680;28;20018;-74
2023/09/02 04:49:32;;;;;;;11.35;4.97;;;;;;;;;;5033927;28;20036;-74
2023/09/02 04:51:57;;;;;;;9.23;4.95;;;;;;;;;;5062095;28;20394;-74
2023/09/02 04:54:23;;;;;;;8.27;5.38;;;;;;;;;;5054312;28;20028;-74
2023/09/02 04:56:49;;;;;;;11.57;4.97;;;;;;;;;;5037359;28;20024;-74
2023/09/02 04:59:14;;;;;;;9.00;4.22;;;;;;;;;;5037517;28;20029;-74
2023/09/02 05:01:39;;;;;;;12.00;5.82;;;;;;;;;;5054470;28;20079;-74
2023/09/02 05:04:05;;;;;;;11.57;6.18;;;;;;;;;;5054423;28;20025;-74
2023/09/02 05:06:30;;;;;;;13.60;7.60;;;;;;;;;;5053726;28;20017;-75
2023/09/02 05:08:56;;;;;;;11.40;7.72;;;;;;;;;;5055845;28;20390;-74
2023/09/02 05:11:23;;;;;;;10.45;5.05;;;;;;;;;;5052610;28;20029;-75
2023/09/02 05:13:48;;;;;;;8.38;4.60;;;;;;;;;;5051915;28;20060;-74
2023/09/02 05:16:14;;;;;;;11.25;5.00;;;;;;;;;;5053295;28;20436;-75
2023/09/02 05:18:39;;;;;;;10.35;6.18;;;;;;;;;;5033197;28;20024;-74
2023/09/02 05:21:04;;;;;;;14.63;7.80;;;;;;;;;;5050808;28;20045;-73
2023/09/02 05:23:30;;;;;;;13.18;6.07;;;;;;;;;;5033640;28;20024;-74
2023/09/02 05:25:56;;;;;;;15.70;8.32;;;;;;;;;;5034539;28;20072;-74
2023/09/02 05:28:25;;;;;;;16.52;8.25;;;;;;;;;;5033691;28;20033;-74
2023/09/02 05:30:50;;;;;;;16.17;7.75;;;;;;;;;;5044870;28;20024;-74
2023/09/02 05:33:16;;;;;;;14.35;7.78;;;;;;;;;;5053458;28;20089;-74
2023/09/02 05:35:42;;;;;;;19.23;9.45;;;;;;;;;;5036820;28;20029;-74
2023/09/02 05:38:09;;;;;;;14.90;7.22;;;;;;;;;;5054827;28;20099;-73
2023/09/02 05:40:34;;;;;;;17.00;7.88;;;;;;;;;;5036875;28;20025;-74
2023/09/02 05:43:00;;;;;;;12.23;6.20;;;;;;;;;;5053306;28;20070;-74
2023/09/02 05:45:25;;;;;;;14.07;7.68;;;;;;;;;;5054007;28;20029;-74
2023/09/02 05:47:50;;;;;;;10.93;6.93;;;;;;;;;;5054927;28;20462;-74
2023/09/02 05:50:17;;;;;;;15.15;7.78;;;;;;;;;;5092885;23;20127;-73
2023/09/02 05:52:42;;;;;;;23.80;10.70;;;;;;;;;;5095087;28;20063;-73
2023/09/02 05:55:07;;;;;;;19.85;8.90;;;;;;;;;;5093667;28;20035;-73
2023/09/02 05:57:33;;;;;;;20.20;9.45;;;;;;;;;;5094665;28;20020;-73
2023/09/02 05:59:58;;;;;;;14.85;8.13;;;;;;;;;;5094757;28;20103;-73
2023/09/02 06:02:23;;;;;;;18.63;9.68;;;;;;;;;;5095232;28;20032;-73
2023/09/02 06:04:48;;;;;;;15.80;8.38;;;;;;;;;;5115220;28;20031;-73
2023/09/02 06:07:14;;;;;;;15.57;7.32;;;;;;;;;;5115119;28;20470;-73
2023/09/02 06:09:39;;;;;;;14.05;7.07;;;;;;;;;;5114126;28;20098;-73
2023/09/02 06:12:04;;;;;;;21.48;10.35;;;;;;;;;;5114181;28;20035;-73
2023/09/02 06:14:30;;;;;;;20.65;10.13;;;;;;;;;;5114030;28;20031;-73
2023/09/02 06:16:55;;;;;;;26.13;12.70;;;;;;;;;;5115039;28;20442;-73
2023/09/02 06:19:20;;;;;;;18.80;10.52;;;;;;;;;;5114887;28;20019;-73
2023/09/02 06:21:48;;;;;;;19.35;10.15;;;;;;;;;;5114728;28;20020;-73
2023/09/02 06:24:14;;;;;;;21.00;9.88;;;;;;;;;;5113529;28;20128;-73
2023/09/02 06:26:39;;;;;;;19.15;9.75;;;;;;;;;;5114647;28;20044;-73
2023/09/02 06:29:04;;;;;;;20.13;9.70;;;;;;;;;;5114700;28;20059;-73
2023/09/02 06:31:30;;;;;;;20.50;9.82;;;;;;;;;;5114443;28;20019;-73
2023/09/02 06:33:55;;;;;;;25.55;11.25;;;;;;;;;;5113471;28;20046;-73
2023/09/02 06:36:21;;;;;;;25.02;12.25;;;;;;;;;;5114592;28;20016;-74
2023/09/02 06:38:46;;;;;;;23.95;11.90;;;;;;;;;;5096204;28;20497;-73
2023/09/02 06:41:15;;;;;;;21.40;10.55;;;;;;;;;;5113103;28;20088;-74
2023/09/02 06:43:41;;;;;;;24.63;11.30;;;;;;;;;;5113367;28;20477;-73
2023/09/02 06:46:16;;;;;;;27.85;12.52;;;;;;;;;;5113370;28;20024;-73
2023/09/02 06:48:42;;;;;;;23.13;10.55;;;;;;;;;;5112970;28;20027;-73
2023/09/02 06:51:07;;;;;;;21.27;9.80;;;;;;;;;;5113361;28;20027;-74
2023/09/02 06:53:32;;;;;;;19.67;9.43;;;;;;;;;;5114204;28;20027;-73
2023/09/02 06:55:58;;;;;;;21.42;10.00;;;;;;;;;;5114169;28;20020;-74
2023/09/02 06:58:23;;;;;;;15.85;8.90;;;;;;;;;;5114098;28;20012;-74
2023/09/02 07:00:48;;;;;;;20.25;9.52;;;;;;;;;;5114041;28;20023;-73
2023/09/02 07:03:14;;;;;;;16.10;8.75;;;;;;;;;;5099624;28;20102;-73
2023/09/02 07:05:39;;;;;;;18.42;8.27;;;;;;;;;;5113132;28;20023;-72
2023/09/02 07:08:05;;;;;;;16.17;8.35;;;;;;;;;;5112782;28;20095;-73
2023/09/02 07:10:30;;;;;;;14.77;8.15;;;;;;;;;;5112760;28;20474;-73
2023/09/02 07:12:55;;;;;;;15.20;7.28;;;;;;;;;;5114040;28;20190;-73
2023/09/02 07:15:20;;;;;;;11.35;7.05;;;;;;;;;;5114650;28;20030;-73
2023/09/02 07:17:46;;;;;;;16.83;8.32;;;;;;;;;;5113874;28;20027;-73
2023/09/02 07:20:12;;;;;;;13.55;6.22;;;;;;;;;;5112743;28;20401;-72
2023/09/02 07:22:37;;;;;;;13.80;6.90;;;;;;;;;;5112226;28;20024;-72
2023/09/02 07:25:03;;;;;;;15.73;6.88;;;;;;;;;;5112501;28;20041;-72
2023/09/02 07:27:32;;;;;;;11.00;6.15;;;;;;;;;;5112389;28;20034;-73
2023/09/02 07:29:58;;;;;;;11.15;6.68;;;;;;;;;;5113124;28;20371;-73
2023/09/02 07:32:24;;;;;;;10.05;6.20;;;;;;;;;;5113822;28;20070;-72
2023/09/02 07:34:49;;;;;;;10.27;5.43;;;;;;;;;;5113895;28;20031;-72
2023/09/02 07:37:14;;;;;;;8.63;4.82;;;;;;;;;;5113259;28;20019;-73
2023/09/02 07:39:40;;;;;;;10.60;5.40;;;;;;;;;;5113673;28;20088;-73
2023/09/02 07:42:05;;;;;;;7.72;4.28;;;;;;;;;;5114088;28;20477;-73
2023/09/02 07:44:31;;;;;;;10.70;4.35;;;;;;;;;;5111975;28;20015;-73
2023/09/02 07:46:56;;;;;;;5.80;4.10;;;;;;;;;;5113246;28;20049;-73
2023/09/02 07:49:22;;;;;;;9.02;4.93;;;;;;;;;;5113544;28;20028;-73
2023/09/02 07:51:47;;;;;;;6.68;4.15;;;;;;;;;;5112558;28;20019;-73
2023/09/02 07:54:14;;;;;;;9.57;4.15;;;;;;;;;;5112189;28;20072;-73
2023/09/02 07:56:39;;;;;;;8.70;3.47;;;;;;;;;;5113091;28;20433;-73
2023/09/02 07:59:05;;;;;;;7.28;3.65;;;;;;;;;;5112944;28;20062;-74
2023/09/02 08:01:31;;;;;;;7.25;3.85;;;;;;;;;;5109430;28;20520;-77
2023/09/02 08:03:56;;;;;;;6.20;3.80;;;;;;;;;;5093451;28;20032;-75
2023/09/02 08:06:22;;;;;;;8.55;4.25;;;;;;;;;;5091438;28;20547;-74
2023/09/02 08:08:47;;;;;;;10.75;5.93;;;;;;;;;;5093006;28;20077;-74
2023/09/02 08:11:17;;;;;;;11.55;5.32;;;;;;;;;;5092973;28;20027;-74
2023/09/02 08:13:43;;;;;;;8.90;4.97;;;;;;;;;;5092581;28;20561;-74
2023/09/02 08:16:08;;;;;;;7.82;4.63;;;;;;;;;;5092781;28;20059;-74
2023/09/02 08:18:36;;;;;;;10.73;4.32;;;;;;;;;;5091508;28;20496;-74
2023/09/02 08:21:08;;;;;;;12.27;5.13;;;;;;;;;;5092399;28;20031;-74
2023/09/02 08:23:33;;;;;;;14.43;5.60;;;;;;;;;;5074907;28;20031;-74
2023/09/02 08:26:05;;;;;;;6.43;4.25;;;;;;;;;;5091755;28;20021;-74
2023/09/02 08:28:30;;;;;;;7.13;3.45;;;;;;;;;;5074510;28;20016;-74
2023/09/02 08:30:55;;;;;;;8.50;4.05;;;;;;;;;;5092468;28;20469;-74
2023/09/02 08:33:21;;;;;;;5.55;3.33;;;;;;;;;;5092635;28;20035;-74
2023/09/02 08:35:46;;;;;;;5.32;2.70;;;;;;;;;;5093879;28;20032;-74
2023/09/02 08:38:11;;;;;;;9.25;3.60;;;;;;;;;;5095327;28;20028;-72
2023/09/02 08:40:42;;;;;;;5.97;2.67;;;;;;;;;;5096040;28;20016;-72
2023/09/02 08:43:07;;;;;;;6.65;2.78;;;;;;;;;;5096342;28;20016;-72
2023/09/02 08:45:33;;;;;;;5.57;2.58;;;;;;;;;;5095222;28;20035;-74
2023/09/02 08:47:59;;;;;;;4.63;2.50;;;;;;;;;;5095373;28;20519;-74
2023/09/02 08:50:29;;;;;;;4.68;2.75;;;;;;;;;;5094750;28;20032;-74
2023/09/02 08:52:55;;;;;;;9.15;3.20;;;;;;;;;;5078094;28;20066;-74
2023/09/02 08:55:21;;;;;;;4.05;2.30;;;;;;;;;;5094809;28;20024;-74
2023/09/02 08:57:47;;;;;;;5.20;2.72;;;;;;;;;;5094953;28;20104;-73
2023/09/02 09:00:12;;;;;;;5.47;2.53;;;;;;;;;;5094639;28;20110;-73
2023/09/02 09:02:38;;;;;;;6.15;2.55;;;;;;;;;;5096086;28;20020;-73
2023/09/02 09:05:05;;;;;;;5.22;2.83;;;;;;;;;;5094827;28;20023;-72
2023/09/02 09:07:30;;;;;;;8.27;4.00;;;;;;;;;;5100886;28;20015;-72
2023/09/02 09:09:59;;;;;;;6.20;2.63;;;;;;;;;;5116200;28;20022;-74
2023/09/02 09:12:25;;;;;;;7.55;2.78;;;;;;;;;;5114989;28;20031;-74
2023/09/02 09:14:53;;;;;;;4.80;2.22;;;;;;;;;;5114643;28;20135;-71
2023/09/02 09:17:18;;;;;;;6.93;2.72;;;;;;;;;;5116075;27;20530;-72
2023/09/02 09:19:44;;;;;;;4.00;2.38;;;;;;;;;;5114747;28;20023;-72
2023/09/02 09:22:09;;;;;;;5.40;2.80;;;;;;;;;;5115891;28;20024;-72
2023/09/02 09:24:35;;;;;;;8.05;2.38;;;;;;;;;;5115902;28;20026;-72
2023/09/02 09:27:05;;;;;;;5.63;2.42;;;;;;;;;;5115832;28;20023;-71
2023/09/02 09:29:38;;;;;;;5.45;2.70;;;;;;;;;;5114774;28;20100;-71
2023/09/02 09:32:23;;;;;;;6.05;2.50;;;;;;;;;;5114779;28;20027;-72
2023/09/02 09:34:48;;;;;;;4.90;2.45;;;;;;;;;;5115918;28;20027;-71
2023/09/02 09:37:14;;;;;;;5.18;2.85;;;;;;;;;;5115488;28;20031;-71
2023/09/02 09:39:45;;;;;;;6.25;2.83;;;;;;;;;;5115170;28;20396;-72
2023/09/02 09:42:13;;;;;;;5.05;2.85;;;;;;;;;;5115833;28;20023;-72
2023/09/02 09:44:55;;;;;;;5.40;2.35;;;;;;;;;;5115486;27;20051;-71
2023/09/02 09:47:25;;;;;;;6.63;2.40;;;;;;;;;;5101827;28;20032;-71
2023/09/02 09:49:51;;;;;;;5.03;1.88;;;;;;;;;;5091466;28;20076;-71
2023/09/02 09:52:18;;;;;;;4.65;2.40;;;;;;;;;;5114713;28;20023;-72
2023/09/02 09:54:52;;;;;;;5.22;2.25;;;;;;;;;;5113511;28;20714;-71
2023/09/02 09:57:37;;;;;;;3.47;2.20;;;;;;;;;;5114387;28;20419;-71
2023/09/02 10:00:07;;;;;;;6.20;1.92;;;;;;;;;;5114796;28;20031;-72
2023/09/02 10:02:33;;;;;;;4.82;2.53;;;;;;;;;;5111558;28;20501;-72
2023/09/02 10:05:00;;;;;;;5.50;2.67;;;;;;;;;;5094658;28;20024;-72
2023/09/02 10:07:27;;;;;;;7.70;2.30;;;;;;;;;;5076263;28;20024;-72
2023/09/02 10:09:58;;;;;;;6.07;2.78;;;;;;;;;;5092898;28;20050;-72
2023/09/02 10:12:23;;;;;;;6.80;2.17;;;;;;;;;;5094342;28;20046;-72
2023/09/02 10:14:49;;;;;;;4.70;2.78;;;;;;;;;;5094606;28;20393;-72
2023/09/02 10:17:16;;;;;;;10.63;2.35;;;;;;;;;;5094691;28;20020;-71
2023/09/02 10:19:42;;;;;;;7.43;2.60;;;;;;;;;;5092926;28;20047;-72
2023/09/02 10:22:08;;;;;;;9.05;2.42;;;;;;;;;;5093404;28;20016;-72
2023/09/02 10:24:34;;;;;;;4.30;2.20;;;;;;;;;;5093140;28;20046;-72
2023/09/02 10:27:00;;;;;;;5.05;2.13;;;;;;;;;;5094504;28;20066;-72
2023/09/02 10:29:33;;;;;;;4.30;2.30;;;;;;;;;;5093183;28;20031;-72
2023/09/02 10:32:03;;;;;;;4.63;2.35;;;;;;;;;;5094624;28;20046;-72
2023/09/02 10:34:36;;;;;;;9.23;2.58;;;;;;;;;;5092590;28;20032;-71
2023/09/02 10:37:04;;;;;;;4.05;2.45;;;;;;;;;;5076240;28;20066;-73
2023/09/02 10:40:08;;;;;;;6.07;2.90;;;;;;;;;;5093170;28;20020;-73
2023/09/02 10:42:34;;;;;;;5.97;2.33;;;;;;;;;;5092432;28;20027;-72
2023/09/02 10:45:00;;;;;;;6.40;2.60;;;;;;;;;;5094145;28;20028;-72
2023/09/02 10:47:25;;;;;;;7.60;2.50;;;;;;;;;;5094016;28;20392;-72
2023/09/02 10:49:51;;;;;;;5.65;2.08;;;;;;;;;;5092260;28;20032;-72
2023/09/02 10:52:16;;;;;;;6.10;2.17;;;;;;;;;;5093045;28;20059;-73
2023/09/02 10:55:03;;;;;;;5.97;2.00;;;;;;;;;;5092773;28;20069;-73
2023/09/02 10:57:30;;;;;;;4.22;2.13;;;;;;;;;;5092876;28;20027;-72
2023/09/02 11:00:18;;;;;;;7.72;2.13;;;;;;;;;;5092447;28;20478;-73
2023/09/02 11:02:45;;;;;;;4.93;2.70;;;;;;;;;;5075709;28;20404;-72
2023/09/02 11:05:10;;;;;;;3.65;1.95;;;;;;;;;;5092470;28;20019;-72
2023/09/02 11:07:39;;;;;;;6.53;2.17;;;;;;;;;;5093249;28;20027;-73
2023/09/02 11:10:06;;;;;;;7.28;2.75;;;;;;;;;;5092348;28;20028;-73
2023/09/02 11:12:33;;;;;;;6.60;2.00;;;;;;;;;;5092345;28;20482;-72
2023/09/02 11:15:07;;;;;;;4.60;2.38;;;;;;;;;;5093494;28;20089;-72
2023/09/02 11:17:36;;;;;;;5.03;2.10;;;;;;;;;;5092881;28;20102;-73
2023/09/02 11:20:03;;;;;;;5.55;2.60;;;;;;;;;;5092439;28;20446;-72
2023/09/02 11:22:47;;;;;;;5.85;2.20;;;;;;;;;;5093419;28;20043;-73
2023/09/02 11:26:01;;;;;;;5.53;2.20;;;;;;;;;;5075047;28;20031;-72
2023/09/02 11:28:27;;;;;;;5.72;2.53;;;;;;;;;;5031470;28;20033;-73
2023/09/02 11:31:12;;;;;;;9.52;3.00;;;;;;;;;;5014833;28;20087;-73
2023/09/02 11:33:38;;;;;;;5.10;2.63;;;;;;;;;;5072065;28;20439;-72
2023/09/02 11:36:05;;;;;;;8.25;2.63;;;;;;;;;;5093465;28;20016;-73
2023/09/02 11:38:31;;;;;;;4.20;2.00;;;;;;;;;;5092074;28;20027;-72
2023/09/02 11:40:56;;;;;;;5.35;2.22;;;;;;;;;;5092211;28;20020;-72
2023/09/02 11:43:22;;;;;;;5.57;2.75;;;;;;;;;;5093571;28;20022;-73
2023/09/02 11:45:47;;;;;;;5.72;2.10;;;;;;;;;;5093434;28;20028;-72
2023/09/02 11:48:12;;;;;;;6.95;2.28;;;;;;;;;;5092068;28;20024;-72
2023/09/02 11:50:38;;;;;;;7.47;2.10;;;;;;;;;;5075579;22;20063;-72
2023/09/02 11:53:04;;;;;;;5.15;2.03;;;;;;;;;;5052658;28;20063;-70
2023/09/02 11:55:29;;;;;;;6.53;2.20;;;;;;;;;;5034596;28;20053;-70
2023/09/02 11:57:55;;;;;;;4.63;2.00;;;;;;;;;;5052425;28;20031;-71
2023/09/02 12:00:24;;;;;;;5.07;2.50;;;;;;;;;;5052444;28;20120;-70
2023/09/02 12:02:53;;;;;;;6.22;2.20;;;;;;;;;;5034915;28;20058;-71
2023/09/02 12:05:18;;;;;;;4.90;2.28;;;;;;;;;;5034198;28;20479;-71
2023/09/02 12:07:45;;;;;;;5.93;2.03;;;;;;;;;;5052331;28;20040;-70
2023/09/02 12:10:15;;;;;;;8.60;2.08;;;;;;;;;;5053625;28;20017;-71
2023/09/02 12:12:46;;;;;;;7.68;2.38;;;;;;;;;;5037994;28;20028;-70
2023/09/02 12:15:18;;;;;;;6.18;2.22;;;;;;;;;;5038536;28;20480;-71
2023/09/02 12:17:45;;;;;;;5.72;2.53;;;;;;;;;;5038348;28;20035;-71
2023/09/02 12:20:12;;;;;;;4.03;2.35;;;;;;;;;;5038029;28;20017;-71
2023/09/02 12:22:38;;;;;;;4.38;2.60;;;;;;;;;;5038035;28;20044;-70
2023/09/02 12:25:15;;;;;;;5.40;2.28;;;;;;;;;;5038062;28;20033;-70
2023/09/02 12:27:40;;;;;;;3.83;1.83;;;;;;;;;;5055636;28;20479;-71
2023/09/02 12:30:06;;;;;;;5.50;1.80;;;;;;;;;;5037954;28;20040;-70
2023/09/02 12:32:31;;;;;;;9.38;2.72;;;;;;;;;;5055621;28;20475;-71
2023/09/02 12:34:57;;;;;;;9.60;2.00;;;;;;;;;;5055775;28;20079;-71
2023/09/02 12:37:22;;;;;;;3.90;1.90;;;;;;;;;;5055681;28;20052;-71
2023/09/02 12:39:51;;;;;;;5.25;2.17;;;;;;;;;;5055862;28;20024;-71
2023/09/02 12:42:18;;;;;;;5.10;2.20;;;;;;;;;;5037223;28;20039;-71
2023/09/02 12:44:48;;;;;;;6.68;2.08;;;;;;;;;;5037863;28;20032;-71
2023/09/02 12:47:20;;;;;;;6.72;2.10;;;;;;;;;;5037654;28;20418;-72
2023/09/02 12:49:46;;;;;;;5.53;2.63;;;;;;;;;;5037098;28;20550;-71
2023/09/02 12:52:15;;;;;;;6.10;2.08;;;;;;;;;;5037946;28;20060;-71
2023/09/02 12:54:45;;;;;;;3.78;1.90;;;;;;;;;;5037586;28;20029;-71
2023/09/02 12:57:10;;;;;;;2.50;1.50;;;;;;;;;;5055365;28;20416;-71
2023/09/02 12:59:36;;;;;;;5.32;1.60;;;;;;;;;;5055265;28;20082;-71
2023/09/02 13:02:01;;;;;;;4.10;1.83;;;;;;;;;;5055239;28;20032;-71
2023/09/02 13:04:26;;;;;;;5.50;1.90;;;;;;;;;;5037160;28;20570;-73
2023/09/02 13:06:51;;;;;;;3.90;1.95;;;;;;;;;;5037684;28;20021;-74
2023/09/02 13:09:17;;;;;;;4.97;1.83;;;;;;;;;;5054993;28;20044;-71
2023/09/02 13:11:42;;;;;;;4.28;1.77;;;;;;;;;;5055065;28;20025;-71
2023/09/02 13:14:07;;;;;;;5.75;2.30;;;;;;;;;;5052579;28;20020;-71
2023/09/02 13:16:33;;;;;;;6.10;2.00;;;;;;;;;;5041343;28;20040;-71
2023/09/02 13:18:59;;;;;;;3.45;1.92;;;;;;;;;;5059058;28;20094;-71
2023/09/02 13:21:24;;;;;;;3.67;1.90;;;;;;;;;;5070539;28;20023;-73
2023/09/02 13:23:52;;;;;;;4.20;1.80;;;;;;;;;;5074147;28;20028;-72
2023/09/02 13:26:19;;;;;;;6.15;2.05;;;;;;;;;;5074251;28;20105;-72
2023/09/02 13:28:44;;;;;;;3.13;1.80;;;;;;;;;;5056633;28;20021;-71
2023/09/02 13:31:11;;;;;;;4.18;2.45;;;;;;;;;;5074547;28;20359;-72
2023/09/02 13:33:39;;;;;;;2.97;2.03;;;;;;;;;;5056768;28;20025;-71
2023/09/02 13:36:05;;;;;;;5.28;2.35;;;;;;;;;;5056764;28;20035;-71
2023/09/02 13:38:30;;;;;;;4.03;1.70;;;;;;;;;;5074003;28;20024;-71
2023/09/02 13:40:55;;;;;;;3.55;1.90;;;;;;;;;;5056420;28;20021;-71
2023/09/02 13:43:23;;;;;;;3.92;1.90;;;;;;;;;;5074385;28;20024;-71
2023/09/02 13:45:49;;;;;;;5.93;2.00;;;;;;;;;;5056592;28;20029;-72
2023/09/02 13:48:15;;;;;;;3.85;2.03;;;;;;;;;;5074393;28;20491;-72
2023/09/02 13:50:42;;;;;;;7.55;1.58;;;;;;;;;;5073492;28;20102;-70
2023/09/02 13:53:09;;;;;;;4.30;1.92;;;;;;;;;;5074404;28;20020;-71
2023/09/02 13:55:44;;;;;;;4.47;1.80;;;;;;;;;;5056505;28;20035;-70
2023/09/02 13:58:10;;;;;;;5.68;2.20;;;;;;;;;;5056489;28;20041;-70
2023/09/02 14:00:40;;;;;;;4.90;2.03;;;;;;;;;;5073651;28;20020;-71
2023/09/02 14:03:26;;;;;;;4.82;1.90;;;;;;;;;;5074053;28;20154;-72
2023/09/02 14:05:52;;;;;;;5.90;1.95;;;;;;;;;;5056310;28;20027;-71
2023/09/02 14:08:19;;;;;;;4.13;1.92;;;;;;;;;;5056083;28;20496;-71
2023/09/02 14:10:48;;;;;;;5.68;2.00;;;;;;;;;;5055869;28;20039;-71
2023/09/02 14:13:17;;;;;;;5.72;1.98;;;;;;;;;;5074152;28;20024;-72
2023/09/02 14:15:43;;;;;;;5.97;2.00;;;;;;;;;;5055469;28;20489;-71
2023/09/02 14:18:08;;;;;;;5.43;2.33;;;;;;;;;;5055827;28;20036;-71
2023/09/02 14:20:34;;;;;;;4.85;2.25;;;;;;;;;;5073635;28;20398;-71
2023/09/02 14:23:00;;;;;;;5.60;1.98;;;;;;;;;;5073558;28;20024;-71
2023/09/02 14:25:26;;;;;;;4.40;1.70;;;;;;;;;;5055596;28;20036;-71
2023/09/02 14:27:52;;;;;;;6.28;2.05;;;;;;;;;;5073017;28;20486;-71
2023/09/02 14:30:18;;;;;;;2.83;1.58;;;;;;;;;;5073738;28;20135;-71
2023/09/02 14:32:43;;;;;;;4.05;2.10;;;;;;;;;;5054724;28;20478;-71
2023/09/02 14:35:08;;;;;;;4.63;1.60;;;;;;;;;;5055222;28;20031;-70
2023/09/02 14:37:34;;;;;;;2.78;1.85;;;;;;;;;;5055606;28;20069;-70